createdAt,value
2019-05-21T00:01:57.927Z,4.97
2019-05-21T00:06:59.612Z,5.63
2019-05-21T00:12:01.282Z,4.77
2019-05-21T00:17:03.017Z,5.50
2019-05-21T00:22:04.500Z,5.87
2019-05-21T00:27:05.974Z,6.87
2019-05-21T00:33:03.704Z,7.83
2019-05-21T00:39:01.500Z,8.97
2019-05-21T00:44:05.527Z,10.50
2019-05-21T00:49:07.036Z,10.17
2019-05-21T00:54:08.614Z,11.30
2019-05-21T00:59:10.086Z,12.27
2019-05-21T01:04:12.059Z,10.83
2019-05-21T01:09:13.535Z,11.27
2019-05-21T01:14:15.283Z,12.27
2019-05-21T01:19:16.850Z,12.37
2019-05-21T01:24:18.440Z,10.27
2019-05-21T01:29:20.020Z,9.47
2019-05-21T01:34:21.497Z,9.23
2019-05-21T01:39:23.094Z,11.00
2019-05-21T01:44:24.606Z,8.87
2019-05-21T01:49:26.128Z,5.23
2019-05-21T01:54:27.595Z,5.17
2019-05-21T01:59:29.074Z,5.40
2019-05-21T02:04:30.542Z,6.17
2019-05-21T02:09:33.937Z,5.23
2019-05-21T02:14:35.451Z,4.80
2019-05-21T02:19:36.928Z,4.23
2019-05-21T02:24:38.402Z,3.70
2019-05-21T02:29:39.880Z,4.20
2019-05-21T02:34:41.373Z,3.67
2019-05-21T02:39:42.834Z,3.80
2019-05-21T02:44:44.352Z,3.43
2019-05-21T02:49:46.042Z,3.90
2019-05-21T02:54:47.508Z,3.33
2019-05-21T02:59:50.987Z,3.37
2019-05-21T03:04:52.462Z,3.40
2019-05-21T03:09:54.040Z,3.00
2019-05-21T03:14:55.663Z,3.13
2019-05-21T03:19:57.130Z,2.53
2019-05-21T03:25:02.031Z,4.10
2019-05-21T03:30:05.138Z,4.40
2019-05-21T03:35:08.618Z,7.37
2019-05-21T03:40:10.492Z,9.37
2019-05-21T03:45:13.115Z,11.30
2019-05-21T03:50:15.032Z,9.17
2019-05-21T03:55:16.613Z,9.17
2019-05-21T04:00:18.694Z,9.63
2019-05-21T04:05:24.009Z,10.03
2019-05-21T04:10:25.877Z,9.03
2019-05-21T04:15:29.311Z,9.63
2019-05-21T04:20:30.784Z,14.83
2019-05-21T04:25:32.261Z,18.80
2019-05-21T04:30:33.932Z,12.33
2019-05-21T04:35:35.417Z,10.50
2019-05-21T04:40:37.999Z,9.47
2019-05-21T04:45:39.568Z,9.73
2019-05-21T04:50:41.049Z,9.43
2019-05-21T04:55:42.516Z,11.87
2019-05-21T05:00:44.089Z,13.10
2019-05-21T05:05:45.673Z,10.77
2019-05-21T05:10:49.273Z,12.90
2019-05-21T05:15:50.672Z,10.63
2019-05-21T05:20:52.243Z,8.83
2019-05-21T05:25:53.719Z,7.23
2019-05-21T05:30:55.305Z,8.27
2019-05-21T05:35:56.785Z,10.20
2019-05-21T05:40:58.258Z,7.63
2019-05-21T05:45:59.999Z,9.10
2019-05-21T05:51:06.562Z,11.17
2019-05-21T05:56:08.037Z,17.00
2019-05-21T06:01:09.519Z,20.23
2019-05-21T06:06:10.995Z,16.77
2019-05-21T06:11:12.584Z,16.03
2019-05-21T06:16:14.100Z,11.60
2019-05-21T06:21:33.824Z,13.57
2019-05-21T06:26:35.465Z,15.33
2019-05-21T06:31:38.108Z,12.83
2019-05-21T06:36:39.688Z,12.60
2019-05-21T06:41:41.283Z,14.20
2019-05-21T06:46:42.767Z,12.97
2019-05-21T06:51:45.356Z,11.23
2019-05-21T06:56:46.832Z,9.20
2019-05-21T07:01:48.361Z,12.07
2019-05-21T07:06:50.153Z,11.00
2019-05-21T07:11:51.985Z,10.70
2019-05-21T07:16:53.485Z,11.73
2019-05-21T07:22:11.163Z,12.50
2019-05-21T07:26:58.964Z,8.17
2019-05-21T07:32:00.510Z,7.10
2019-05-21T07:37:02.008Z,4.93
2019-05-21T07:42:03.951Z,4.93
2019-05-21T07:47:05.939Z,7.97
2019-05-21T07:52:07.476Z,5.47
2019-05-21T07:57:09.051Z,6.03
2019-05-21T08:02:10.714Z,4.40
2019-05-21T08:07:12.400Z,5.23
2019-05-21T08:12:35.527Z,4.43
2019-05-21T08:17:17.287Z,5.07
2019-05-21T08:22:18.819Z,4.90
2019-05-21T08:27:20.390Z,4.50
2019-05-21T08:32:21.878Z,4.90
2019-05-21T08:37:23.467Z,4.23
2019-05-21T08:42:25.070Z,3.13
2019-05-21T08:47:26.703Z,2.83
2019-05-21T08:52:28.532Z,2.80
2019-05-21T08:57:30.007Z,3.00
2019-05-21T09:02:31.537Z,3.53
2019-05-21T09:07:33.408Z,4.80
2019-05-21T09:12:35.297Z,4.07
2019-05-21T09:17:36.866Z,4.73
2019-05-21T09:22:38.405Z,4.43
2019-05-21T09:27:40.339Z,4.47
2019-05-21T09:32:41.924Z,5.20
2019-05-21T09:37:43.512Z,5.70
2019-05-21T09:42:45.606Z,4.73
2019-05-21T09:47:47.372Z,4.20
2019-05-21T09:52:49.507Z,2.90
2019-05-21T09:57:55.933Z,3.67
2019-05-21T10:02:57.517Z,3.87
2019-05-21T10:07:59.183Z,3.50
2019-05-21T10:13:00.658Z,4.20
2019-05-21T10:18:02.503Z,5.27
2019-05-21T10:23:04.079Z,5.03
2019-05-21T10:28:05.827Z,4.90
2019-05-21T10:33:07.418Z,4.17
2019-05-21T10:38:08.985Z,4.83
2019-05-21T10:43:10.581Z,3.90
2019-05-21T10:48:12.260Z,4.33
2019-05-21T10:53:13.994Z,4.00
2019-05-21T10:58:15.819Z,3.67
2019-05-21T11:03:22.044Z,4.67
2019-05-21T11:08:25.103Z,5.13
2019-05-21T11:13:27.157Z,4.63
2019-05-21T11:18:28.720Z,4.47
2019-05-21T11:23:30.201Z,4.00
2019-05-21T11:28:31.757Z,3.73
2019-05-21T11:33:33.298Z,2.93
2019-05-21T11:38:39.862Z,3.20
2019-05-21T11:43:38.488Z,3.83
2019-05-21T11:48:40.071Z,3.67
2019-05-21T11:53:41.547Z,3.40
2019-05-21T11:58:43.122Z,3.50
2019-05-21T12:03:44.624Z,3.30
2019-05-21T12:08:56.335Z,3.13
2019-05-21T12:13:49.812Z,2.80
2019-05-21T12:18:51.422Z,3.30
2019-05-21T12:23:53.079Z,4.23
2019-05-21T12:28:55.474Z,3.83
2019-05-21T12:33:56.973Z,3.60
2019-05-21T12:39:13.136Z,3.80
2019-05-21T12:44:02.475Z,3.73
2019-05-21T12:49:05.252Z,3.77
2019-05-21T12:54:06.843Z,3.83
2019-05-21T12:59:08.480Z,3.53
2019-05-21T13:04:10.080Z,4.03
2019-05-21T13:09:11.911Z,2.83
2019-05-21T13:14:18.243Z,2.67
2019-05-21T13:19:17.141Z,1.90
2019-05-21T13:24:18.812Z,2.40
2019-05-21T13:29:21.122Z,2.20
2019-05-21T13:34:22.768Z,2.90
2019-05-21T13:39:25.768Z,3.87
2019-05-21T13:44:27.590Z,3.00
2019-05-21T13:49:29.116Z,4.37
2019-05-21T13:54:30.680Z,4.00
2019-05-21T13:59:32.457Z,4.13
2019-05-21T14:04:34.085Z,4.07
2019-05-21T14:09:35.923Z,3.90
2019-05-21T14:14:37.731Z,4.13
2019-05-21T14:19:39.257Z,4.73
2019-05-21T14:24:40.732Z,5.07
2019-05-21T14:29:42.212Z,5.43
2019-05-21T14:34:58.649Z,5.20
2019-05-21T14:39:47.268Z,5.93
2019-05-21T14:44:48.849Z,5.77
2019-05-21T14:49:50.353Z,6.30
2019-05-21T14:54:51.840Z,5.63
2019-05-21T14:59:53.328Z,3.07
2019-05-21T15:04:54.999Z,3.93
2019-05-21T15:09:56.860Z,4.27
2019-05-21T15:14:58.370Z,5.63
2019-05-21T15:20:01.786Z,10.13
2019-05-21T15:25:05.058Z,11.40
2019-05-21T15:30:07.541Z,12.87
2019-05-21T15:35:09.476Z,12.93
2019-05-21T15:40:12.158Z,18.37
2019-05-21T15:45:14.437Z,8.20
2019-05-21T15:50:16.358Z,6.10
2019-05-21T15:55:18.067Z,6.97
2019-05-21T16:00:21.564Z,6.80
2019-05-21T16:05:23.432Z,5.57
2019-05-21T16:10:25.121Z,4.80
2019-05-21T16:15:26.735Z,5.83
2019-05-21T16:20:28.582Z,5.70
2019-05-21T16:25:30.265Z,5.37
2019-05-21T16:30:31.974Z,4.93
2019-05-21T16:35:33.528Z,6.10
2019-05-21T16:40:35.364Z,5.37
2019-05-21T16:45:36.844Z,4.80
2019-05-21T16:50:38.474Z,6.63
2019-05-21T16:55:40.047Z,5.70
2019-05-21T17:00:41.972Z,5.70
2019-05-21T17:05:43.442Z,5.73
2019-05-21T17:10:45.133Z,7.37
2019-05-21T17:15:46.603Z,7.80
2019-05-21T17:20:48.200Z,8.07
2019-05-21T17:25:49.782Z,7.60
2019-05-21T17:30:51.402Z,6.70
2019-05-21T17:35:52.883Z,7.07
2019-05-21T17:40:55.100Z,9.10
2019-05-21T17:45:56.686Z,6.23
2019-05-21T17:50:58.543Z,5.30
2019-05-21T17:56:00.220Z,5.27
2019-05-21T18:01:04.239Z,7.20
2019-05-21T18:06:06.591Z,6.00
2019-05-21T18:11:08.666Z,5.87
2019-05-21T18:16:11.453Z,5.70
2019-05-21T18:21:13.226Z,7.27
2019-05-21T18:26:14.974Z,5.23
2019-05-21T18:31:17.207Z,7.03
2019-05-21T18:36:18.909Z,9.23
2019-05-21T18:41:20.601Z,7.03
2019-05-21T18:46:22.194Z,8.37
2019-05-21T18:51:23.919Z,10.87
2019-05-21T18:56:25.894Z,6.87
2019-05-21T19:01:27.996Z,6.17
2019-05-21T19:06:29.663Z,6.30
2019-05-21T19:11:31.454Z,6.97
2019-05-21T19:16:33.135Z,9.47
2019-05-21T19:21:34.867Z,8.87
2019-05-21T19:26:36.442Z,9.90
2019-05-21T19:31:38.113Z,9.23
2019-05-21T19:36:39.704Z,10.07
2019-05-21T19:41:41.493Z,9.23
2019-05-21T19:46:43.304Z,9.30
2019-05-21T19:51:44.931Z,8.17
2019-05-21T19:56:46.521Z,9.33
2019-05-21T20:01:50.005Z,8.97
2019-05-21T20:06:51.687Z,8.37
2019-05-21T20:11:53.489Z,9.00
2019-05-21T20:16:55.296Z,8.53
2019-05-21T20:21:57.855Z,7.83
2019-05-21T20:26:59.531Z,7.97
2019-05-21T20:32:01.518Z,6.70
2019-05-21T20:37:05.244Z,6.70
2019-05-21T20:42:09.516Z,5.23
2019-05-21T20:47:12.885Z,3.80
2019-05-21T20:52:18.901Z,3.60
2019-05-21T20:57:20.394Z,4.27
2019-05-21T21:02:23.386Z,4.37
2019-05-21T21:07:25.116Z,4.40
2019-05-21T21:12:26.865Z,4.90
2019-05-21T21:17:28.585Z,3.00
2019-05-21T21:22:30.506Z,2.93
2019-05-21T21:27:32.407Z,2.60
2019-05-21T21:32:35.520Z,2.53
2019-05-21T21:37:37.758Z,2.50
2019-05-21T21:42:40.897Z,2.13
2019-05-21T21:47:43.079Z,2.23
2019-05-21T21:52:45.315Z,2.20
2019-05-21T21:57:46.807Z,2.10
2019-05-21T22:02:48.376Z,2.03
2019-05-21T22:07:50.945Z,2.53
2019-05-21T22:12:52.927Z,2.27
2019-05-21T22:17:54.707Z,2.50
2019-05-21T22:22:57.370Z,2.40
2019-05-21T22:27:59.058Z,2.40
2019-05-21T22:33:00.650Z,2.87
2019-05-21T22:38:02.482Z,2.90
2019-05-21T22:43:04.283Z,3.03
2019-05-21T22:48:05.980Z,2.67
2019-05-21T22:53:08.303Z,2.73
2019-05-21T22:58:10.289Z,2.60
2019-05-21T23:03:12.597Z,3.03
2019-05-21T23:08:16.366Z,3.00
2019-05-21T23:13:17.831Z,2.77
2019-05-21T23:18:20.046Z,2.60
2019-05-21T23:23:43.993Z,3.17
2019-05-21T23:28:45.870Z,3.30
2019-05-21T23:33:49.344Z,3.47
2019-05-21T23:38:51.275Z,3.40
2019-05-21T23:43:53.072Z,3.97
2019-05-21T23:48:54.736Z,4.47
2019-05-21T23:53:57.552Z,4.73
2019-05-21T23:59:00.025Z,5.27
